createdAt,value
2023-01-26T00:00:32.793Z,29.50
2023-01-26T00:02:06.182Z,29.30
2023-01-26T00:03:38.633Z,30.60
2023-01-26T00:05:12.071Z,30.70
2023-01-26T00:06:45.467Z,30.87
2023-01-26T00:08:20.264Z,30.47
2023-01-26T00:09:53.678Z,31.30
2023-01-26T00:11:26.970Z,29.17
2023-01-26T00:13:00.411Z,28.33
2023-01-26T00:14:49.839Z,29.60
2023-01-26T00:16:23.632Z,28.40
2023-01-26T00:17:56.021Z,28.90
2023-01-26T00:19:29.406Z,30.83
2023-01-26T00:21:03.520Z,28.33
2023-01-26T00:22:35.920Z,26.90
2023-01-26T00:24:10.979Z,28.57
2023-01-26T00:25:44.446Z,29.77
2023-01-26T00:27:17.866Z,27.00
2023-01-26T00:28:51.415Z,29.03
2023-01-26T00:30:25.664Z,28.10
2023-01-26T00:31:59.095Z,30.23
2023-01-26T00:33:32.518Z,31.27
2023-01-26T00:35:06.327Z,31.63
2023-01-26T00:36:42.868Z,32.27
2023-01-26T00:38:16.249Z,30.73
2023-01-26T00:39:51.035Z,31.37
2023-01-26T00:41:42.314Z,30.80
2023-01-26T00:43:15.823Z,30.77
2023-01-26T00:44:49.394Z,29.53
2023-01-26T00:46:21.789Z,30.13
2023-01-26T00:47:55.260Z,30.70
2023-01-26T00:49:28.644Z,30.60
2023-01-26T00:51:02.022Z,29.67
2023-01-26T00:52:35.423Z,28.13
2023-01-26T00:54:07.828Z,28.47
2023-01-26T00:55:42.588Z,29.97
2023-01-26T00:57:16.264Z,30.23
2023-01-26T00:58:49.637Z,29.93
2023-01-26T01:00:24.381Z,30.57
2023-01-26T01:01:58.204Z,32.23
2023-01-26T01:03:31.634Z,32.30
2023-01-26T01:05:05.095Z,33.33
2023-01-26T01:06:37.533Z,32.17
2023-01-26T01:08:10.906Z,30.33
2023-01-26T01:09:44.283Z,30.47
2023-01-26T01:11:19.310Z,32.63
2023-01-26T01:12:51.671Z,32.03
2023-01-26T01:14:25.072Z,32.53
2023-01-26T01:15:58.485Z,31.70
2023-01-26T01:17:31.902Z,31.03
2023-01-26T01:19:04.324Z,31.33
2023-01-26T01:20:37.713Z,29.17
2023-01-26T01:22:11.109Z,30.10
2023-01-26T01:23:43.976Z,29.20
2023-01-26T01:25:17.469Z,30.73
2023-01-26T01:26:52.219Z,30.47
2023-01-26T01:28:24.677Z,32.03
2023-01-26T01:29:58.107Z,32.60
2023-01-26T01:31:30.794Z,33.97
2023-01-26T01:33:04.999Z,32.47
2023-01-26T01:34:38.390Z,30.97
2023-01-26T01:36:12.194Z,31.93
2023-01-26T01:37:45.595Z,32.77
2023-01-26T01:39:19.016Z,32.37
2023-01-26T01:40:52.477Z,34.30
2023-01-26T01:42:27.543Z,33.00
2023-01-26T01:44:12.757Z,33.63
2023-01-26T01:45:47.139Z,34.30
2023-01-26T01:47:26.656Z,33.77
2023-01-26T01:49:01.393Z,33.27
2023-01-26T01:50:37.993Z,32.40
2023-01-26T01:52:12.658Z,34.63
2023-01-26T01:53:46.992Z,34.43
2023-01-26T01:55:20.554Z,32.80
2023-01-26T01:56:56.595Z,34.97
2023-01-26T01:58:33.110Z,33.20
2023-01-26T02:00:08.055Z,35.23
2023-01-26T02:01:47.400Z,32.80
2023-01-26T02:03:21.402Z,33.83
2023-01-26T02:04:55.907Z,33.03
2023-01-26T02:06:31.538Z,33.73
2023-01-26T02:08:06.518Z,34.40
2023-01-26T02:09:59.155Z,34.17
2023-01-26T02:11:35.291Z,32.73
2023-01-26T02:13:07.834Z,32.93
2023-01-26T02:14:42.769Z,33.05
2023-01-26T02:16:16.554Z,34.92
2023-01-26T02:17:50.207Z,32.43
2023-01-26T02:19:27.759Z,32.37
2023-01-26T02:21:02.453Z,32.93
2023-01-26T02:22:40.792Z,32.03
2023-01-26T02:24:16.715Z,32.23
2023-01-26T02:25:58.557Z,32.10
2023-01-26T02:27:32.159Z,32.73
2023-01-26T02:29:08.304Z,34.33
2023-01-26T02:30:42.161Z,34.07
2023-01-26T02:32:16.099Z,35.17
2023-01-26T02:33:49.559Z,36.90
2023-01-26T02:35:22.968Z,35.83
2023-01-26T02:36:59.839Z,36.13
2023-01-26T02:38:39.398Z,37.63
2023-01-26T02:40:16.914Z,37.47
2023-01-26T02:42:09.531Z,37.33
2023-01-26T02:43:42.993Z,38.30
2023-01-26T02:45:17.223Z,37.10
2023-01-26T02:46:51.760Z,37.60
2023-01-26T02:48:43.639Z,38.33
2023-01-26T02:50:17.371Z,37.60
2023-01-26T02:51:50.537Z,37.35
2023-01-26T02:53:24.120Z,37.67
2023-01-26T02:55:15.142Z,38.30
2023-01-26T02:56:48.545Z,38.00
2023-01-26T02:58:23.354Z,37.10
2023-01-26T02:59:55.794Z,36.85
2023-01-26T03:01:31.587Z,39.23
2023-01-26T03:03:09.566Z,40.33
2023-01-26T03:04:42.062Z,38.30
2023-01-26T03:06:15.640Z,37.03
2023-01-26T03:07:49.289Z,38.53
2023-01-26T03:09:25.509Z,38.67
2023-01-26T03:10:59.069Z,39.10
2023-01-26T03:12:31.491Z,38.67
2023-01-26T03:14:06.252Z,38.13
2023-01-26T03:15:52.420Z,38.70
2023-01-26T03:17:27.333Z,37.77
2023-01-26T03:19:18.044Z,39.37
2023-01-26T03:21:09.340Z,37.07
2023-01-26T03:23:08.874Z,38.43
2023-01-26T03:24:59.714Z,37.07
2023-01-26T03:26:50.473Z,38.67
2023-01-26T03:28:24.950Z,38.03
2023-01-26T03:30:00.802Z,40.30
2023-01-26T03:31:33.308Z,38.00
2023-01-26T03:33:07.219Z,39.07
2023-01-26T03:34:40.644Z,37.83
2023-01-26T03:36:13.044Z,38.07
2023-01-26T03:37:46.532Z,37.73
2023-01-26T03:39:51.195Z,36.93
2023-01-26T03:41:42.274Z,36.53
2023-01-26T03:43:33.889Z,36.10
2023-01-26T03:45:27.027Z,33.70
2023-01-26T03:47:17.915Z,36.10
2023-01-26T03:49:09.271Z,36.67
2023-01-26T03:51:00.118Z,35.90
2023-01-26T03:52:51.825Z,35.30
2023-01-26T03:54:43.121Z,35.33
2023-01-26T03:56:21.697Z,39.23
2023-01-26T03:57:56.541Z,36.90
2023-01-26T03:59:39.053Z,37.87
2023-01-26T04:01:27.559Z,37.87
2023-01-26T04:03:20.273Z,37.83
2023-01-26T04:05:11.651Z,34.00
2023-01-26T04:07:06.490Z,35.57
2023-01-26T04:08:40.800Z,34.73
2023-01-26T04:10:14.257Z,35.17
2023-01-26T04:11:48.170Z,35.73
2023-01-26T04:13:40.318Z,37.47
2023-01-26T04:15:32.911Z,36.03
2023-01-26T04:17:26.553Z,35.83
2023-01-26T04:19:17.469Z,37.03
2023-01-26T04:21:09.900Z,35.55
2023-01-26T04:22:45.202Z,37.47
2023-01-26T04:24:22.313Z,38.07
2023-01-26T04:26:00.136Z,37.13
2023-01-26T04:27:34.979Z,37.90
2023-01-26T04:29:10.333Z,37.77
2023-01-26T04:30:44.219Z,38.67
2023-01-26T04:32:19.203Z,37.97
2023-01-26T04:33:53.737Z,37.87
2023-01-26T04:35:27.998Z,40.27
2023-01-26T04:37:01.537Z,39.97
2023-01-26T04:38:45.167Z,38.40
2023-01-26T04:40:21.028Z,38.15
2023-01-26T04:41:55.766Z,39.10
2023-01-26T04:43:29.206Z,38.33
2023-01-26T04:45:02.656Z,39.53
2023-01-26T04:46:37.301Z,40.33
2023-01-26T04:48:12.411Z,39.10
2023-01-26T04:49:45.884Z,39.57
2023-01-26T04:51:21.254Z,39.77
2023-01-26T04:52:54.709Z,41.20
2023-01-26T04:54:28.119Z,39.20
2023-01-26T04:56:01.601Z,39.72
2023-01-26T04:57:36.239Z,39.47
2023-01-26T04:59:11.499Z,41.27
2023-01-26T05:00:51.954Z,40.22
2023-01-26T05:02:25.399Z,40.80
2023-01-26T05:04:02.408Z,40.33
2023-01-26T05:05:38.064Z,42.30
2023-01-26T05:07:11.540Z,39.57
2023-01-26T05:08:45.269Z,40.45
2023-01-26T05:10:18.982Z,41.00
2023-01-26T05:12:35.166Z,38.70
2023-01-26T05:14:37.694Z,38.50
2023-01-26T05:16:27.700Z,38.65
2023-01-26T05:18:10.082Z,40.97
2023-01-26T05:19:56.387Z,40.55
2023-01-26T05:21:56.090Z,38.80
2023-01-26T05:23:29.620Z,39.78
2023-01-26T05:25:29.243Z,41.13
2023-01-26T05:27:23.708Z,40.88
2023-01-26T05:29:00.466Z,41.88
2023-01-26T05:30:32.960Z,42.90
2023-01-26T05:32:08.224Z,40.57
2023-01-26T05:33:41.689Z,40.97
2023-01-26T05:35:18.872Z,42.05
2023-01-26T05:36:52.382Z,41.63
2023-01-26T05:38:26.342Z,43.05
2023-01-26T05:39:58.918Z,42.43
2023-01-26T05:41:32.778Z,41.63
2023-01-26T05:43:26.475Z,39.50
2023-01-26T05:45:15.970Z,40.73
2023-01-26T05:46:49.385Z,42.70
2023-01-26T05:48:22.799Z,43.83
2023-01-26T05:49:58.582Z,40.85
2023-01-26T05:51:36.656Z,40.80
2023-01-26T05:53:11.029Z,41.25
2023-01-26T05:54:45.241Z,43.30
2023-01-26T05:56:18.602Z,42.70
2023-01-26T05:57:56.601Z,41.50
2023-01-26T05:59:30.092Z,39.93
2023-01-26T06:01:05.721Z,40.63
2023-01-26T06:02:48.727Z,38.40
2023-01-26T06:04:23.736Z,35.87
2023-01-26T06:06:00.178Z,34.93
2023-01-26T06:07:54.719Z,35.13
2023-01-26T06:09:33.487Z,36.20
2023-01-26T06:11:42.107Z,34.40
2023-01-26T06:13:35.798Z,35.97
2023-01-26T06:15:22.071Z,35.37
2023-01-26T06:16:56.837Z,35.47
2023-01-26T06:18:30.869Z,34.90
2023-01-26T06:20:07.367Z,36.90
2023-01-26T06:21:41.510Z,35.42
2023-01-26T06:23:16.275Z,37.67
2023-01-26T06:24:51.477Z,35.72
2023-01-26T06:26:25.006Z,37.50
2023-01-26T06:27:59.458Z,35.97
2023-01-26T06:29:34.505Z,34.92
2023-01-26T06:31:08.652Z,34.42
2023-01-26T06:32:42.137Z,34.95
2023-01-26T06:34:15.582Z,32.47
2023-01-26T06:35:49.882Z,34.33
2023-01-26T06:37:23.256Z,34.72
2023-01-26T06:39:00.886Z,33.87
2023-01-26T06:40:34.757Z,33.55
2023-01-26T06:42:09.371Z,34.47
2023-01-26T06:43:46.540Z,34.17
2023-01-26T06:45:20.803Z,30.77
2023-01-26T06:46:55.226Z,29.60
2023-01-26T06:48:31.085Z,31.05
2023-01-26T06:50:05.035Z,29.60
2023-01-26T06:51:43.571Z,30.63
2023-01-26T06:53:31.514Z,32.83
2023-01-26T06:55:42.632Z,30.10
2023-01-26T06:57:40.065Z,31.10
2023-01-26T06:59:43.590Z,31.33
2023-01-26T07:01:32.843Z,32.15
2023-01-26T07:03:06.278Z,32.45
2023-01-26T07:04:39.677Z,33.05
2023-01-26T07:06:13.142Z,30.75
2023-01-26T07:07:46.657Z,30.17
2023-01-26T07:09:20.024Z,36.95
2023-01-26T07:10:54.807Z,35.30
2023-01-26T07:12:28.186Z,33.00
2023-01-26T07:14:01.602Z,35.50
2023-01-26T07:15:35.201Z,31.65
2023-01-26T07:17:08.622Z,31.75
2023-01-26T07:18:42.035Z,33.95
2023-01-26T07:20:15.541Z,32.60
2023-01-26T07:21:49.504Z,33.67
2023-01-26T07:23:22.913Z,34.97
2023-01-26T07:24:56.288Z,35.75
2023-01-26T07:26:31.058Z,34.70
2023-01-26T07:28:04.421Z,36.70
2023-01-26T07:29:37.821Z,37.70
2023-01-26T07:31:12.808Z,40.33
2023-01-26T07:32:46.378Z,39.80
2023-01-26T07:34:19.770Z,38.92
2023-01-26T07:35:54.873Z,38.70
2023-01-26T07:37:29.278Z,39.50
2023-01-26T07:39:02.778Z,40.05
2023-01-26T07:40:36.238Z,35.50
2023-01-26T07:42:11.503Z,33.45
2023-01-26T07:43:53.607Z,32.47
2023-01-26T07:45:27.790Z,31.50
2023-01-26T07:47:01.183Z,30.88
2023-01-26T07:48:34.710Z,35.30
2023-01-26T07:50:09.056Z,33.30
2023-01-26T07:51:42.681Z,32.65
2023-01-26T07:53:15.153Z,31.70
2023-01-26T07:54:48.560Z,30.37
2023-01-26T07:56:21.961Z,32.70
2023-01-26T07:57:57.850Z,29.73
2023-01-26T07:59:31.327Z,32.08
2023-01-26T08:01:08.511Z,29.30
2023-01-26T08:02:42.123Z,28.52
2023-01-26T08:04:15.550Z,30.63
2023-01-26T08:05:48.934Z,31.48
2023-01-26T08:07:22.404Z,27.98
2023-01-26T08:08:55.818Z,31.13
2023-01-26T08:10:31.555Z,30.42
2023-01-26T08:12:05.309Z,32.20
2023-01-26T08:13:40.244Z,32.38
2023-01-26T08:15:13.845Z,30.90
2023-01-26T08:16:47.297Z,29.25
2023-01-26T08:18:20.962Z,31.27
2023-01-26T08:19:54.387Z,32.17
2023-01-26T08:21:27.914Z,32.47
2023-01-26T08:23:01.335Z,32.67
2023-01-26T08:24:35.157Z,30.43
2023-01-26T08:26:10.235Z,32.10
2023-01-26T08:27:43.747Z,33.78
2023-01-26T08:29:20.766Z,31.77
2023-01-26T08:30:54.224Z,30.80
2023-01-26T08:32:27.713Z,33.10
2023-01-26T08:34:01.426Z,30.75
2023-01-26T08:35:34.818Z,33.58
2023-01-26T08:37:08.340Z,35.05
2023-01-26T08:38:42.126Z,43.17
2023-01-26T08:40:16.442Z,41.08
2023-01-26T08:41:49.816Z,36.42
2023-01-26T08:43:23.255Z,39.67
2023-01-26T08:44:58.086Z,37.53
2023-01-26T08:46:31.455Z,40.03
2023-01-26T08:48:04.960Z,42.20
2023-01-26T08:49:38.401Z,36.80
2023-01-26T08:51:11.795Z,39.42
2023-01-26T08:52:45.248Z,37.75
2023-01-26T08:54:18.646Z,36.22
2023-01-26T08:55:52.709Z,39.33
2023-01-26T08:57:26.289Z,42.13
2023-01-26T08:58:59.690Z,40.65
2023-01-26T09:00:34.426Z,39.95
2023-01-26T09:02:07.936Z,40.38
2023-01-26T09:03:41.822Z,42.40
2023-01-26T09:05:15.216Z,40.85
2023-01-26T09:06:48.677Z,37.25
2023-01-26T09:08:22.104Z,40.67
2023-01-26T09:09:55.537Z,41.13
2023-01-26T09:11:28.933Z,40.50
2023-01-26T09:13:02.771Z,41.30
2023-01-26T09:14:36.152Z,42.53
2023-01-26T09:16:21.661Z,43.20
2023-01-26T09:17:55.167Z,42.28
2023-01-26T09:19:30.746Z,40.05
2023-01-26T09:21:05.034Z,39.70
2023-01-26T09:22:38.454Z,42.70
2023-01-26T09:24:11.929Z,40.17
2023-01-26T09:25:45.387Z,42.63
2023-01-26T09:27:18.770Z,40.38
2023-01-26T09:28:53.017Z,40.03
2023-01-26T09:30:26.484Z,43.60
2023-01-26T09:32:01.300Z,43.80
2023-01-26T09:33:34.783Z,44.33
2023-01-26T09:35:14.306Z,41.63
2023-01-26T09:36:47.841Z,44.35
2023-01-26T09:38:21.221Z,48.28
2023-01-26T09:39:54.643Z,46.10
2023-01-26T09:41:37.110Z,47.47
2023-01-26T09:43:19.162Z,43.63
2023-01-26T09:44:54.708Z,41.53
2023-01-26T09:46:29.606Z,39.30
2023-01-26T09:48:20.806Z,39.75
2023-01-26T09:50:00.688Z,40.25
2023-01-26T09:51:35.228Z,39.90
2023-01-26T09:53:12.497Z,35.60
2023-01-26T09:54:48.932Z,37.20
2023-01-26T09:56:23.764Z,36.40
2023-01-26T09:57:58.790Z,34.33
2023-01-26T09:59:35.101Z,37.70
2023-01-26T10:01:16.580Z,35.58
2023-01-26T10:02:57.198Z,35.47
2023-01-26T10:04:36.399Z,39.22
2023-01-26T10:06:15.316Z,34.97
2023-01-26T10:08:10.192Z,37.78
2023-01-26T10:09:46.024Z,37.85
2023-01-26T10:11:20.942Z,35.42
2023-01-26T10:12:54.890Z,40.13
2023-01-26T10:14:33.184Z,39.65
2023-01-26T10:16:11.879Z,40.80
2023-01-26T10:17:46.039Z,47.95
2023-01-26T10:19:22.301Z,44.05
2023-01-26T10:20:56.929Z,41.08
2023-01-26T10:22:33.683Z,35.80
2023-01-26T10:24:07.323Z,41.13
2023-01-26T10:25:42.265Z,36.42
2023-01-26T10:27:15.675Z,37.35
2023-01-26T10:28:50.225Z,38.45
2023-01-26T10:30:23.902Z,35.38
2023-01-26T10:31:57.353Z,36.97
2023-01-26T10:33:33.958Z,40.08
2023-01-26T10:35:07.925Z,36.15
2023-01-26T10:36:42.327Z,37.22
2023-01-26T10:38:29.667Z,34.42
2023-01-26T10:40:04.098Z,35.25
2023-01-26T10:41:37.826Z,36.00
2023-01-26T10:43:19.206Z,35.45
2023-01-26T10:44:52.810Z,38.85
2023-01-26T10:46:28.808Z,34.83
2023-01-26T10:48:18.030Z,34.63
2023-01-26T10:49:51.456Z,32.85
2023-01-26T10:51:26.241Z,29.58
2023-01-26T10:53:00.436Z,33.45
2023-01-26T10:54:36.859Z,34.13
2023-01-26T10:56:14.373Z,35.10
2023-01-26T10:57:47.862Z,34.97
2023-01-26T10:59:26.935Z,34.10
2023-01-26T11:01:00.414Z,34.50
2023-01-26T11:02:33.870Z,34.08
2023-01-26T11:04:08.062Z,29.85
2023-01-26T11:05:43.437Z,30.55
2023-01-26T11:07:26.225Z,29.55
2023-01-26T11:09:10.163Z,33.05
2023-01-26T11:10:53.950Z,32.85
2023-01-26T11:12:27.929Z,32.00
2023-01-26T11:14:14.872Z,31.23
2023-01-26T11:15:49.407Z,32.95
2023-01-26T11:17:24.639Z,32.67
2023-01-26T11:19:00.249Z,34.08
2023-01-26T11:20:42.204Z,33.83
2023-01-26T11:22:18.914Z,32.50
2023-01-26T11:23:54.724Z,35.35
2023-01-26T11:25:29.862Z,34.40
2023-01-26T11:27:20.664Z,35.55
2023-01-26T11:28:58.856Z,33.45
2023-01-26T11:30:38.810Z,31.58
2023-01-26T11:32:16.879Z,32.72
2023-01-26T11:33:56.487Z,30.92
2023-01-26T11:35:32.274Z,32.88
2023-01-26T11:37:20.051Z,31.45
2023-01-26T11:38:59.421Z,30.15
2023-01-26T11:40:38.255Z,28.48
2023-01-26T11:42:20.321Z,28.30
2023-01-26T11:44:00.466Z,30.17
2023-01-26T11:45:38.416Z,29.00
2023-01-26T11:47:18.609Z,29.38
2023-01-26T11:48:58.187Z,28.88
2023-01-26T11:50:35.084Z,28.30
2023-01-26T11:52:13.200Z,30.07
2023-01-26T11:53:58.219Z,29.02
2023-01-26T11:55:37.275Z,28.52
2023-01-26T11:57:16.227Z,31.30
2023-01-26T11:58:51.387Z,28.58
2023-01-26T12:00:30.757Z,29.70
2023-01-26T12:02:06.780Z,26.38
2023-01-26T12:03:43.388Z,28.20
2023-01-26T12:05:19.487Z,28.50
2023-01-26T12:06:55.795Z,28.50
2023-01-26T12:08:38.235Z,29.92
2023-01-26T12:10:14.502Z,29.63
2023-01-26T12:11:50.669Z,28.02
2023-01-26T12:13:29.899Z,27.02
2023-01-26T12:15:06.012Z,28.83
2023-01-26T12:17:16.704Z,31.08
2023-01-26T12:19:10.058Z,31.75
2023-01-26T12:20:46.556Z,29.65
2023-01-26T12:22:22.661Z,29.42
2023-01-26T12:23:59.927Z,28.20
2023-01-26T12:25:35.359Z,26.60
2023-01-26T12:27:13.964Z,27.40
2023-01-26T12:28:49.551Z,28.65
2023-01-26T12:30:28.619Z,29.33
2023-01-26T12:32:05.942Z,29.35
2023-01-26T12:33:39.483Z,28.17
2023-01-26T12:35:13.628Z,32.47
2023-01-26T12:36:51.103Z,28.67
2023-01-26T12:38:27.332Z,28.92
2023-01-26T12:40:07.370Z,31.48
2023-01-26T12:41:48.127Z,28.60
2023-01-26T12:43:25.386Z,29.92
2023-01-26T12:45:00.155Z,30.67
2023-01-26T12:46:35.887Z,27.90
2023-01-26T12:48:13.211Z,30.08
2023-01-26T12:49:51.205Z,29.80
2023-01-26T12:51:27.199Z,30.83
2023-01-26T12:53:03.076Z,31.70
2023-01-26T12:54:39.344Z,30.75
2023-01-26T12:56:15.124Z,31.35
2023-01-26T12:57:50.981Z,28.27
2023-01-26T12:59:47.884Z,28.55
2023-01-26T13:01:23.449Z,27.83
2023-01-26T13:02:58.585Z,26.03
2023-01-26T13:04:33.367Z,25.95
2023-01-26T13:06:20.381Z,23.88
2023-01-26T13:07:53.782Z,24.42
2023-01-26T13:09:27.817Z,25.50
2023-01-26T13:11:01.793Z,23.25
2023-01-26T13:12:48.618Z,22.80
2023-01-26T13:14:32.878Z,22.63
2023-01-26T13:16:32.275Z,21.83
2023-01-26T13:18:06.382Z,21.30
2023-01-26T13:19:54.040Z,21.08
2023-01-26T13:21:30.851Z,21.92
2023-01-26T13:23:04.265Z,21.50
2023-01-26T13:24:44.187Z,22.50
2023-01-26T13:26:43.464Z,25.13
2023-01-26T13:28:17.098Z,22.70
2023-01-26T13:29:56.839Z,21.73
2023-01-26T13:31:31.585Z,19.17
2023-01-26T13:33:12.618Z,20.33
2023-01-26T13:34:48.447Z,20.83
2023-01-26T13:36:24.943Z,21.08
2023-01-26T13:38:00.248Z,20.70
2023-01-26T13:39:36.324Z,22.05
2023-01-26T13:41:11.268Z,25.98
2023-01-26T13:42:50.033Z,24.80
2023-01-26T13:44:24.693Z,26.60
2023-01-26T13:46:01.853Z,25.00
2023-01-26T13:47:37.918Z,25.52
2023-01-26T13:49:25.334Z,26.30
2023-01-26T13:51:01.598Z,27.30
2023-01-26T13:52:43.384Z,24.88
2023-01-26T13:54:17.923Z,25.17
2023-01-26T13:55:53.770Z,23.13
2023-01-26T13:57:28.214Z,23.77
2023-01-26T13:59:05.891Z,22.52
2023-01-26T14:00:39.691Z,20.80
2023-01-26T14:02:13.455Z,21.50
2023-01-26T14:03:46.925Z,22.50
2023-01-26T14:05:23.263Z,21.15
2023-01-26T14:06:58.102Z,21.60
2023-01-26T14:08:33.614Z,21.00
2023-01-26T14:10:08.002Z,21.08
2023-01-26T14:11:41.494Z,20.25
2023-01-26T14:13:18.463Z,18.15
2023-01-26T14:14:53.030Z,19.90
2023-01-26T14:16:28.505Z,18.15
2023-01-26T14:18:02.972Z,18.45
2023-01-26T14:19:41.401Z,20.95
2023-01-26T14:21:18.113Z,20.40
2023-01-26T14:23:03.857Z,20.35
2023-01-26T14:24:41.232Z,21.40
2023-01-26T14:26:19.723Z,19.48
2023-01-26T14:27:53.106Z,20.50
2023-01-26T14:29:27.811Z,21.55
2023-01-26T14:31:03.423Z,22.40
2023-01-26T14:32:36.829Z,20.30
2023-01-26T14:34:11.584Z,20.40
2023-01-26T14:35:45.686Z,20.35
2023-01-26T14:37:19.749Z,20.52
2023-01-26T14:38:54.319Z,19.10
2023-01-26T14:40:29.184Z,20.52
2023-01-26T14:42:02.592Z,19.65
2023-01-26T14:43:37.172Z,19.50
2023-01-26T14:45:13.565Z,19.58
2023-01-26T14:46:53.858Z,19.02
2023-01-26T14:48:28.436Z,17.85
2023-01-26T14:50:03.536Z,17.23
2023-01-26T14:51:37.216Z,16.42
2023-01-26T14:53:18.645Z,18.90
2023-01-26T14:54:54.280Z,18.30
2023-01-26T14:56:33.559Z,18.23
2023-01-26T14:58:15.099Z,18.17
2023-01-26T14:59:50.613Z,19.88
2023-01-26T15:01:25.308Z,22.38
2023-01-26T15:03:00.455Z,21.63
2023-01-26T15:04:38.323Z,21.98
2023-01-26T15:06:20.418Z,19.40
2023-01-26T15:07:57.353Z,21.13
2023-01-26T15:09:30.768Z,20.25
2023-01-26T15:11:22.019Z,22.13
2023-01-26T15:13:01.386Z,19.73
2023-01-26T15:14:36.244Z,20.20
2023-01-26T15:16:16.170Z,21.20
2023-01-26T15:18:01.647Z,21.10
2023-01-26T15:19:40.813Z,20.17
2023-01-26T15:21:15.265Z,20.40
2023-01-26T15:22:50.604Z,20.27
2023-01-26T15:24:24.076Z,20.65
2023-01-26T15:25:57.961Z,19.88
2023-01-26T15:27:35.214Z,18.83
2023-01-26T15:29:19.550Z,18.40
2023-01-26T15:30:54.379Z,18.73
2023-01-26T15:32:29.353Z,19.88
2023-01-26T15:34:03.067Z,20.52
2023-01-26T15:35:36.767Z,18.42
2023-01-26T15:37:25.015Z,20.20
2023-01-26T15:39:00.596Z,18.95
2023-01-26T15:40:34.112Z,20.60
2023-01-26T15:42:14.239Z,18.75
2023-01-26T15:43:47.628Z,20.02
2023-01-26T15:45:25.202Z,18.67
2023-01-26T15:46:59.333Z,19.60
2023-01-26T15:48:35.003Z,17.45
2023-01-26T15:50:13.488Z,18.00
2023-01-26T15:51:55.925Z,18.48
2023-01-26T15:53:29.403Z,18.42
2023-01-26T15:55:02.778Z,18.30
2023-01-26T15:56:36.184Z,19.77
2023-01-26T15:58:09.570Z,18.55
2023-01-26T15:59:42.975Z,18.35
2023-01-26T16:01:20.788Z,18.20
2023-01-26T16:02:54.151Z,17.73
2023-01-26T16:04:28.250Z,20.05
2023-01-26T16:06:01.648Z,18.23
2023-01-26T16:07:35.058Z,19.85
2023-01-26T16:09:08.479Z,20.42
2023-01-26T16:10:42.175Z,20.48
2023-01-26T16:12:31.107Z,19.52
2023-01-26T16:14:05.629Z,19.13
2023-01-26T16:15:41.148Z,19.77
2023-01-26T16:17:16.809Z,19.45
2023-01-26T16:18:50.190Z,21.77
2023-01-26T16:20:23.618Z,20.27
2023-01-26T16:21:57.039Z,23.48
2023-01-26T16:23:31.880Z,22.10
2023-01-26T16:25:12.651Z,20.85
2023-01-26T16:26:46.182Z,21.58
2023-01-26T16:28:19.973Z,22.08
2023-01-26T16:29:53.370Z,21.85
2023-01-26T16:31:27.840Z,23.08
2023-01-26T16:33:02.775Z,21.33
2023-01-26T16:34:36.173Z,21.48
2023-01-26T16:36:11.041Z,20.77
2023-01-26T16:37:44.623Z,19.10
2023-01-26T16:39:17.991Z,21.70
2023-01-26T16:40:51.544Z,21.17
2023-01-26T16:42:24.967Z,18.55
2023-01-26T16:43:59.485Z,20.73
2023-01-26T16:45:33.839Z,20.35
2023-01-26T16:47:07.304Z,20.33
2023-01-26T16:48:43.475Z,21.40
2023-01-26T16:50:17.215Z,21.45
2023-01-26T16:51:50.623Z,20.58
2023-01-26T16:53:26.298Z,20.23
2023-01-26T16:54:59.687Z,22.30
2023-01-26T16:56:33.316Z,21.35
2023-01-26T16:58:06.660Z,21.80
2023-01-26T16:59:40.146Z,20.88
2023-01-26T17:01:18.905Z,20.20
2023-01-26T17:02:52.819Z,21.20
2023-01-26T17:04:27.703Z,21.20
2023-01-26T17:06:01.097Z,21.27
2023-01-26T17:07:34.463Z,21.75
2023-01-26T17:09:07.871Z,22.20
2023-01-26T17:10:55.547Z,22.25
2023-01-26T17:12:34.273Z,22.13
2023-01-26T17:14:07.875Z,21.63
2023-01-26T17:15:41.255Z,22.52
2023-01-26T17:17:14.644Z,20.90
2023-01-26T17:18:48.416Z,21.13
2023-01-26T17:20:23.252Z,22.00
2023-01-26T17:21:57.819Z,21.50
2023-01-26T17:23:32.168Z,19.33
2023-01-26T17:25:05.755Z,21.13
2023-01-26T17:26:39.913Z,20.73
2023-01-26T17:28:13.261Z,22.08
2023-01-26T17:29:46.823Z,22.70
2023-01-26T17:31:21.248Z,18.02
2023-01-26T17:32:54.678Z,20.23
2023-01-26T17:34:28.036Z,22.08
2023-01-26T17:36:03.337Z,22.25
2023-01-26T17:37:37.585Z,22.45
2023-01-26T17:39:11.642Z,23.33
2023-01-26T17:40:45.018Z,21.48
2023-01-26T17:42:18.448Z,23.55
2023-01-26T17:43:51.950Z,21.98
2023-01-26T17:45:25.788Z,22.25
2023-01-26T17:46:59.282Z,23.73
2023-01-26T17:48:32.633Z,23.02
2023-01-26T17:50:06.579Z,23.25
2023-01-26T17:51:42.164Z,24.35
2023-01-26T17:53:15.582Z,26.08
2023-01-26T17:54:49.062Z,23.35
2023-01-26T17:56:23.014Z,23.38
2023-01-26T17:57:56.398Z,24.35
2023-01-26T17:59:29.782Z,22.98
2023-01-26T18:01:03.184Z,25.48
2023-01-26T18:02:38.512Z,26.48
2023-01-26T18:04:11.907Z,24.45
2023-01-26T18:05:52.618Z,22.38
2023-01-26T18:07:27.403Z,24.08
2023-01-26T18:09:00.787Z,26.92
2023-01-26T18:10:34.169Z,26.65
2023-01-26T18:12:07.952Z,25.42
2023-01-26T18:13:41.372Z,23.98
2023-01-26T18:15:14.766Z,24.60
2023-01-26T18:16:48.226Z,24.98
2023-01-26T18:18:21.611Z,23.90
2023-01-26T18:19:54.994Z,23.95
2023-01-26T18:21:29.108Z,23.25
2023-01-26T18:23:03.846Z,27.15
2023-01-26T18:24:37.240Z,25.48
2023-01-26T18:26:10.614Z,23.88
2023-01-26T18:27:43.948Z,24.77
2023-01-26T18:29:17.643Z,25.48
2023-01-26T18:30:51.070Z,23.23
2023-01-26T18:32:24.618Z,24.08
2023-01-26T18:33:58.874Z,22.77
2023-01-26T18:35:34.203Z,21.52
2023-01-26T18:37:07.573Z,22.23
2023-01-26T18:38:42.968Z,23.10
2023-01-26T18:40:17.939Z,20.25
2023-01-26T18:41:51.312Z,20.88
2023-01-26T18:43:27.767Z,20.17
2023-01-26T18:45:01.825Z,20.13
2023-01-26T18:46:35.221Z,23.23
2023-01-26T18:48:08.643Z,21.42
2023-01-26T18:49:42.017Z,20.75
2023-01-26T18:51:15.822Z,20.13
2023-01-26T18:52:49.182Z,21.25
2023-01-26T18:54:24.425Z,17.63
2023-01-26T18:56:01.763Z,18.65
2023-01-26T18:57:35.152Z,18.35
2023-01-26T18:59:10.654Z,19.13
2023-01-26T19:00:44.809Z,19.25
2023-01-26T19:02:18.244Z,16.20
2023-01-26T19:03:55.317Z,17.17
2023-01-26T19:05:29.429Z,17.42
2023-01-26T19:07:02.793Z,16.85
2023-01-26T19:08:36.447Z,15.82
2023-01-26T19:10:12.073Z,15.07
2023-01-26T19:11:45.503Z,16.40
2023-01-26T19:13:18.911Z,17.80
2023-01-26T19:14:52.274Z,18.05
2023-01-26T19:16:25.797Z,17.48
2023-01-26T19:17:59.424Z,17.95
2023-01-26T19:19:32.833Z,20.27
2023-01-26T19:21:06.543Z,19.65
2023-01-26T19:22:39.949Z,20.85
2023-01-26T19:24:13.361Z,20.05
2023-01-26T19:25:48.141Z,22.30
2023-01-26T19:27:21.918Z,23.38
2023-01-26T19:28:55.789Z,20.55
2023-01-26T19:30:29.290Z,20.15
2023-01-26T19:32:02.717Z,20.58
2023-01-26T19:33:35.180Z,23.42
2023-01-26T19:35:10.455Z,21.88
2023-01-26T19:36:46.746Z,23.02
2023-01-26T19:38:20.114Z,24.00
2023-01-26T19:39:53.492Z,21.83
2023-01-26T19:41:28.436Z,22.15
2023-01-26T19:43:00.867Z,22.48
2023-01-26T19:44:34.367Z,23.05
2023-01-26T19:46:09.382Z,24.35
2023-01-26T19:47:44.312Z,21.30
2023-01-26T19:49:17.746Z,20.65
2023-01-26T19:51:00.828Z,21.80
2023-01-26T19:52:34.211Z,22.50
2023-01-26T19:54:07.644Z,22.45
2023-01-26T19:55:41.014Z,23.00
2023-01-26T19:57:15.721Z,20.75
2023-01-26T19:58:50.980Z,21.13
2023-01-26T20:00:25.889Z,21.25
2023-01-26T20:01:59.296Z,20.80
2023-01-26T20:03:32.663Z,19.65
2023-01-26T20:05:06.308Z,20.48
2023-01-26T20:06:39.712Z,19.73
2023-01-26T20:08:13.096Z,21.10
2023-01-26T20:09:46.563Z,20.17
2023-01-26T20:11:24.747Z,19.30
2023-01-26T20:13:01.256Z,21.70
2023-01-26T20:14:34.819Z,21.40
2023-01-26T20:16:08.616Z,21.05
2023-01-26T20:17:42.701Z,21.77
2023-01-26T20:19:16.155Z,22.92
2023-01-26T20:20:51.100Z,22.58
2023-01-26T20:22:24.546Z,21.98
2023-01-26T20:23:57.973Z,21.60
2023-01-26T20:25:31.583Z,21.90
2023-01-26T20:27:05.029Z,22.10
2023-01-26T20:28:40.704Z,22.30
2023-01-26T20:30:14.800Z,20.90
2023-01-26T20:31:48.854Z,22.52
2023-01-26T20:33:22.366Z,20.58
2023-01-26T20:34:55.733Z,24.27
2023-01-26T20:36:29.589Z,23.00
2023-01-26T20:38:03.389Z,23.13
2023-01-26T20:39:36.887Z,23.77
2023-01-26T20:41:11.056Z,22.98
2023-01-26T20:42:44.505Z,23.58
2023-01-26T20:44:19.370Z,21.80